Time;durP1;ratioP1;P1;durP2;ratioP2;P2;SDS_P1;SDS_P2;PMS_P1;PMS_P2;Temp;Humidity;BMP_temperature;BMP_pressure;BME280_temperature;BME280_humidity;BME280_pressure;Samples;Min_cycle;Max_cycle;Signal;HPM_P1;HPM_P2
2023/07/07 00:01:09;;;;;;;5.30;3.70;;;13.20;99.90;;;;;;5057712;28;20236;-81
2023/07/07 00:03:35;;;;;;;8.48;3.75;;;13.20;99.90;;;;;;5075241;28;20546;-81
2023/07/07 00:06:02;;;;;;;5.38;3.70;;;13.30;99.90;;;;;;5045445;28;20201;-80
2023/07/07 00:08:28;;;;;;;6.30;3.53;;;13.50;99.90;;;;;;5037848;28;20189;-80
2023/07/07 00:10:54;;;;;;;4.35;3.30;;;13.40;99.90;;;;;;5038010;28;20262;-80
2023/07/07 00:13:20;;;;;;;6.85;4.10;;;13.20;99.90;;;;;;5037808;28;20244;-80
2023/07/07 00:15:46;;;;;;;4.40;3.30;;;13.10;99.90;;;;;;5039658;28;20178;-80
2023/07/07 00:18:26;;;;;;;8.95;3.97;;;13.00;99.90;;;;;;5055327;28;20178;-80
2023/07/07 00:20:59;;;;;;;5.95;3.75;;;13.00;99.90;;;;;;5055533;28;20556;-81
2023/07/07 00:23:26;;;;;;;5.50;3.72;;;13.00;99.90;;;;;;5038381;28;20776;-81
2023/07/07 00:26:03;;;;;;;6.57;3.80;;;13.00;99.90;;;;;;5039483;28;20194;-81
2023/07/07 00:28:30;;;;;;;6.28;3.72;;;13.10;99.90;;;;;;5037742;28;20178;-81
2023/07/07 00:30:57;;;;;;;4.70;3.95;;;13.10;99.90;;;;;;5037893;28;20179;-80
2023/07/07 00:33:23;;;;;;;7.65;4.10;;;12.90;99.90;;;;;;5037161;28;20210;-80
2023/07/07 00:35:49;;;;;;;5.00;3.97;;;12.80;99.90;;;;;;5037998;28;20263;-81
2023/07/07 00:38:16;;;;;;;5.50;3.67;;;12.80;99.90;;;;;;5038090;28;20185;-81
2023/07/07 00:40:42;;;;;;;8.55;3.88;;;12.80;99.90;;;;;;5056653;28;20250;-80
2023/07/07 00:43:17;;;;;;;5.95;4.18;;;12.90;99.90;;;;;;5039059;28;20314;-81
2023/07/07 00:45:44;;;;;;;5.13;3.85;;;12.90;99.90;;;;;;5058200;28;20658;-80
2023/07/07 00:48:13;;;;;;;6.95;3.97;;;12.90;99.90;;;;;;5056960;28;20635;-80
2023/07/07 00:50:50;;;;;;;8.70;4.50;;;12.80;99.90;;;;;;5038179;28;20179;-80
2023/07/07 00:53:16;;;;;;;5.57;4.03;;;12.70;99.90;;;;;;5055775;28;20229;-80
2023/07/07 00:55:49;;;;;;;6.72;3.95;;;12.60;99.90;;;;;;5037869;28;20170;-80
2023/07/07 00:58:18;;;;;;;5.70;3.90;;;12.40;99.90;;;;;;5037431;28;20166;-80
2023/07/07 01:00:49;;;;;;;5.82;3.80;;;12.30;99.90;;;;;;5037300;28;20233;-80
2023/07/07 01:03:22;;;;;;;7.10;3.97;;;12.30;99.90;;;;;;5055085;28;20737;-80
2023/07/07 01:05:50;;;;;;;5.38;4.20;;;12.20;99.90;;;;;;5036774;28;20236;-80
2023/07/07 01:08:17;;;;;;;5.60;4.22;;;12.20;99.90;;;;;;5036919;28;20205;-80
2023/07/07 01:10:42;;;;;;;6.82;4.32;;;12.10;99.90;;;;;;5055181;28;20178;-80
2023/07/07 01:13:08;;;;;;;5.30;4.15;;;12.20;99.90;;;;;;5036879;28;20574;-80
2023/07/07 01:15:41;;;;;;;4.30;3.83;;;12.10;99.90;;;;;;5037416;28;20178;-80
2023/07/07 01:18:22;;;;;;;6.30;4.30;;;12.10;99.90;;;;;;5054829;28;20154;-80
2023/07/07 01:21:01;;;;;;;7.70;3.92;;;12.00;99.90;;;;;;5037042;28;20196;-80
2023/07/07 01:23:57;;;;;;;7.03;4.53;;;12.00;99.90;;;;;;5037379;28;20205;-80
2023/07/07 01:26:57;;;;;;;7.13;3.95;;;12.00;99.90;;;;;;5037312;28;20167;-80
2023/07/07 01:29:44;;;;;;;5.47;3.75;;;12.00;99.90;;;;;;5037523;28;20159;-80
2023/07/07 01:32:17;;;;;;;6.43;5.05;;;12.10;99.90;;;;;;5036654;28;20245;-80
2023/07/07 01:34:46;;;;;;;7.90;4.50;;;12.00;99.90;;;;;;5036700;28;20195;-81
2023/07/07 01:37:11;;;;;;;9.00;4.85;;;12.00;99.90;;;;;;5036829;28;20158;-80
2023/07/07 01:39:38;;;;;;;6.22;4.38;;;12.00;99.90;;;;;;5057382;28;20753;-80
2023/07/07 01:42:29;;;;;;;9.00;5.03;;;12.00;99.90;;;;;;5040065;28;20666;-80
2023/07/07 01:45:11;;;;;;;12.68;5.40;;;11.90;99.90;;;;;;5058518;28;20185;-80
2023/07/07 01:47:39;;;;;;;10.38;5.70;;;11.90;99.90;;;;;;5040190;28;20615;-80
2023/07/07 01:50:07;;;;;;;8.32;5.05;;;11.90;99.90;;;;;;5058550;28;20647;-80
2023/07/07 01:52:36;;;;;;;7.20;5.07;;;11.90;99.90;;;;;;5058065;28;20197;-81
2023/07/07 01:55:19;;;;;;;9.45;5.10;;;11.80;99.90;;;;;;5040573;28;20274;-80
2023/07/07 01:57:47;;;;;;;5.83;4.03;;;11.70;99.90;;;;;;5040703;28;20190;-80
2023/07/07 02:00:15;;;;;;;7.72;4.60;;;11.60;99.90;;;;;;5058009;28;20182;-80
2023/07/07 02:02:41;;;;;;;6.43;4.15;;;11.50;99.90;;;;;;5039613;28;20188;-80
2023/07/07 02:05:07;;;;;;;5.97;4.45;;;11.50;99.90;;;;;;5058296;28;20261;-80
2023/07/07 02:07:34;;;;;;;6.03;4.80;;;11.50;99.90;;;;;;5040420;28;20182;-80
2023/07/07 02:09:59;;;;;;;8.45;3.97;;;11.60;99.90;;;;;;5040121;28;20639;-80
2023/07/07 02:12:25;;;;;;;8.23;4.85;;;11.60;99.90;;;;;;5040302;28;20229;-80
2023/07/07 02:14:51;;;;;;;7.25;4.50;;;11.60;99.90;;;;;;5040023;28;20328;-80
2023/07/07 02:17:18;;;;;;;7.45;5.07;;;11.50;99.90;;;;;;5039762;28;20185;-80
2023/07/07 02:19:44;;;;;;;7.78;4.65;;;11.60;99.90;;;;;;5039838;28;20228;-80
2023/07/07 02:22:12;;;;;;;6.60;4.55;;;11.60;99.90;;;;;;5040013;28;20702;-80
2023/07/07 02:24:38;;;;;;;6.10;4.55;;;11.50;99.90;;;;;;5040674;28;20735;-80
2023/07/07 02:27:07;;;;;;;5.60;4.38;;;11.50;99.90;;;;;;5041449;28;20194;-80
2023/07/07 02:29:33;;;;;;;7.55;5.00;;;11.60;99.90;;;;;;5059772;28;20183;-80
2023/07/07 02:31:58;;;;;;;7.47;4.90;;;11.60;99.90;;;;;;5040898;28;20202;-80
2023/07/07 02:34:24;;;;;;;9.40;5.30;;;11.60;99.90;;;;;;5040236;28;20202;-80
2023/07/07 02:36:52;;;;;;;6.32;4.75;;;11.50;99.90;;;;;;5040127;28;20194;-80
2023/07/07 02:39:17;;;;;;;8.68;5.45;;;11.40;99.90;;;;;;5040020;28;20178;-80
2023/07/07 02:41:43;;;;;;;6.50;4.55;;;11.40;99.90;;;;;;5057608;28;20529;-80
2023/07/07 02:44:09;;;;;;;5.75;4.20;;;11.40;99.90;;;;;;5038652;28;20203;-80
2023/07/07 02:46:34;;;;;;;5.05;3.95;;;11.40;99.90;;;;;;5038790;28;20186;-80
2023/07/07 02:49:00;;;;;;;7.60;3.80;;;11.30;99.90;;;;;;5039008;28;20281;-80
2023/07/07 02:51:26;;;;;;;4.33;3.87;;;11.20;99.90;;;;;;5039704;28;20174;-80
2023/07/07 02:53:52;;;;;;;5.60;4.00;;;11.20;99.90;;;;;;5039479;28;20210;-80
2023/07/07 02:56:17;;;;;;;5.28;4.40;;;11.00;99.90;;;;;;5057192;28;20171;-80
2023/07/07 02:58:43;;;;;;;6.40;5.00;;;11.00;99.90;;;;;;5039807;28;20177;-80
2023/07/07 03:01:17;;;;;;;6.33;4.47;;;11.00;99.90;;;;;;5057144;28;20549;-80
2023/07/07 03:03:47;;;;;;;5.07;4.30;;;10.90;99.90;;;;;;5039242;28;20673;-80
2023/07/07 03:06:20;;;;;;;7.17;4.53;;;10.80;99.90;;;;;;5039641;28;20190;-80
2023/07/07 03:08:47;;;;;;;7.37;4.97;;;10.80;99.90;;;;;;5057359;28;20260;-80
2023/07/07 03:11:16;;;;;;;5.47;4.47;;;10.80;99.90;;;;;;5038776;28;20708;-80
2023/07/07 03:13:44;;;;;;;6.07;4.83;;;10.70;99.90;;;;;;5038820;28;20210;-80
2023/07/07 03:16:20;;;;;;;6.17;4.83;;;10.70;99.90;;;;;;5056644;28;20208;-80
2023/07/07 03:18:49;;;;;;;7.43;5.17;;;10.70;99.90;;;;;;5056338;28;20526;-79
2023/07/07 03:21:19;;;;;;;12.07;5.13;;;10.70;99.90;;;;;;5056984;28;20194;-80
2023/07/07 03:23:45;;;;;;;7.50;5.10;;;10.70;99.90;;;;;;5038826;28;20202;-79
2023/07/07 03:26:14;;;;;;;11.20;5.13;;;10.70;99.90;;;;;;5038812;28;20248;-80
2023/07/07 03:28:40;;;;;;;8.30;5.13;;;10.70;99.90;;;;;;5038361;28;20278;-79
2023/07/07 03:31:23;;;;;;;5.63;4.83;;;10.80;99.90;;;;;;5038516;28;20220;-79
2023/07/07 03:33:51;;;;;;;10.10;5.43;;;10.80;99.90;;;;;;5037918;28;20218;-79
2023/07/07 03:36:20;;;;;;;10.27;5.20;;;10.80;99.90;;;;;;5056639;28;20182;-79
2023/07/07 03:38:46;;;;;;;11.48;6.00;;;10.90;99.90;;;;;;5038378;28;20183;-79
2023/07/07 03:41:16;;;;;;;9.38;4.97;;;10.90;99.90;;;;;;5038526;28;20184;-79
2023/07/07 03:43:45;;;;;;;11.83;5.70;;;10.90;99.90;;;;;;5038577;28;20208;-79
2023/07/07 03:46:15;;;;;;;6.40;5.10;;;11.00;99.90;;;;;;5038013;28;20183;-80
2023/07/07 03:48:41;;;;;;;9.30;6.37;;;10.90;99.90;;;;;;5038735;28;20174;-80
2023/07/07 03:51:22;;;;;;;7.57;5.30;;;10.90;99.90;;;;;;5040895;28;20182;-80
2023/07/07 03:53:50;;;;;;;6.07;4.93;;;10.80;99.90;;;;;;5037952;28;20214;-80
2023/07/07 03:56:17;;;;;;;7.67;5.30;;;10.80;99.90;;;;;;5038509;28;20589;-80
2023/07/07 03:58:43;;;;;;;9.87;6.00;;;10.80;99.90;;;;;;5037927;28;20181;-80
2023/07/07 04:01:12;;;;;;;9.47;5.10;;;10.80;99.90;;;;;;5037493;28;20170;-80
2023/07/07 04:03:38;;;;;;;7.77;4.90;;;10.80;99.90;;;;;;5037958;28;20199;-80
2023/07/07 04:06:04;;;;;;;6.73;4.90;;;10.80;99.90;;;;;;5038268;28;20182;-79
2023/07/07 04:08:30;;;;;;;7.27;5.40;;;10.80;99.90;;;;;;5038221;28;20186;-80
2023/07/07 04:11:10;;;;;;;7.40;5.07;;;10.90;99.90;;;;;;5038368;28;20179;-79
2023/07/07 04:13:42;;;;;;;9.03;4.87;;;11.00;99.90;;;;;;5037878;28;20214;-78
2023/07/07 04:16:16;;;;;;;6.53;4.97;;;10.90;99.90;;;;;;5037422;28;20192;-79
2023/07/07 04:18:44;;;;;;;6.43;5.03;;;10.90;99.90;;;;;;5055350;28;20150;-79
2023/07/07 04:21:13;;;;;;;5.97;4.93;;;10.90;99.90;;;;;;5037617;28;20187;-80
2023/07/07 04:23:41;;;;;;;8.97;5.33;;;11.00;99.90;;;;;;5037040;28;20210;-79
2023/07/07 04:26:09;;;;;;;6.53;4.93;;;11.00;99.90;;;;;;5038154;28;20269;-79
2023/07/07 04:28:38;;;;;;;11.47;5.87;;;11.10;99.90;;;;;;5037678;28;20289;-79
2023/07/07 04:31:07;;;;;;;8.63;4.73;;;11.20;99.90;;;;;;5038401;28;20541;-79
2023/07/07 04:33:37;;;;;;;7.47;5.07;;;11.20;99.90;;;;;;5022452;28;20234;-80
2023/07/07 04:36:08;;;;;;;7.67;5.27;;;11.30;99.90;;;;;;5058899;28;20243;-79
2023/07/07 04:38:42;;;;;;;6.78;5.30;;;11.30;99.90;;;;;;5057221;28;20159;-79
2023/07/07 04:41:15;;;;;;;10.07;5.17;;;11.30;99.90;;;;;;5022523;28;20203;-80
2023/07/07 04:43:47;;;;;;;8.30;5.43;;;11.40;99.90;;;;;;5057573;28;20209;-78
2023/07/07 04:46:22;;;;;;;7.32;5.45;;;11.40;99.90;;;;;;5040061;28;20177;-78
2023/07/07 04:48:48;;;;;;;7.57;5.43;;;11.50;99.90;;;;;;5039306;28;20169;-80
2023/07/07 04:51:26;;;;;;;9.97;5.77;;;11.50;99.90;;;;;;5038602;28;20224;-79
2023/07/07 04:53:55;;;;;;;6.97;5.13;;;11.50;99.90;;;;;;5037643;28;20230;-80
2023/07/07 04:56:22;;;;;;;10.37;5.37;;;11.60;99.90;;;;;;5038117;28;20639;-79
2023/07/07 04:58:50;;;;;;;8.17;5.33;;;11.60;99.90;;;;;;5053480;28;20204;-79
2023/07/07 05:01:26;;;;;;;8.07;4.73;;;11.60;99.90;;;;;;5053801;28;20170;-79
2023/07/07 05:04:01;;;;;;;8.23;5.23;;;11.70;99.90;;;;;;5037028;28;20202;-80
2023/07/07 05:06:30;;;;;;;8.83;5.63;;;11.80;99.90;;;;;;5069782;28;20219;-78
2023/07/07 05:08:56;;;;;;;9.37;5.50;;;11.90;99.90;;;;;;5075343;28;20296;-79
2023/07/07 05:11:27;;;;;;;14.27;5.50;;;11.90;99.90;;;;;;5056700;28;20185;-79
2023/07/07 05:13:53;;;;;;;9.05;5.55;;;12.00;99.90;;;;;;5076869;28;20216;-79
2023/07/07 05:16:21;;;;;;;9.23;5.87;;;12.10;99.90;;;;;;5067369;28;20514;-79
2023/07/07 05:18:47;;;;;;;7.25;5.10;;;12.10;99.90;;;;;;5086597;28;20623;-78
2023/07/07 05:21:16;;;;;;;7.70;5.40;;;12.20;99.90;;;;;;5063605;28;20201;-79
2023/07/07 05:23:42;;;;;;;7.13;4.87;;;12.30;99.90;;;;;;5078816;28;20201;-80
2023/07/07 05:26:09;;;;;;;7.67;4.73;;;12.30;99.90;;;;;;5061241;28;20181;-80
2023/07/07 05:28:34;;;;;;;6.95;5.38;;;12.40;99.90;;;;;;5060987;28;20669;-81
2023/07/07 05:31:00;;;;;;;10.88;5.57;;;12.50;99.90;;;;;;5078764;28;20170;-81
2023/07/07 05:33:28;;;;;;;6.75;5.00;;;12.60;99.90;;;;;;5060678;28;20224;-81
2023/07/07 05:36:00;;;;;;;9.60;4.88;;;12.70;99.90;;;;;;5060965;28;20178;-81
2023/07/07 05:38:27;;;;;;;7.82;5.25;;;12.80;99.90;;;;;;5060707;28;20169;-81
2023/07/07 05:40:53;;;;;;;5.88;4.88;;;12.90;99.90;;;;;;5061112;28;20178;-80
2023/07/07 05:43:21;;;;;;;6.97;4.28;;;12.90;99.90;;;;;;5061806;28;20204;-79
2023/07/07 05:45:47;;;;;;;9.35;4.78;;;13.00;99.90;;;;;;5080217;28;20511;-79
2023/07/07 05:48:14;;;;;;;10.73;4.90;;;13.10;99.90;;;;;;5079613;28;20178;-79
2023/07/07 05:50:43;;;;;;;6.90;4.75;;;13.20;99.90;;;;;;5079631;28;20170;-79
2023/07/07 05:53:12;;;;;;;7.63;4.43;;;13.30;99.90;;;;;;5061248;28;20716;-79
2023/07/07 05:55:39;;;;;;;7.65;5.07;;;13.40;99.90;;;;;;5061019;28;20248;-79
2023/07/07 05:58:05;;;;;;;7.10;4.18;;;13.50;99.90;;;;;;5060510;28;20180;-79
2023/07/07 06:00:34;;;;;;;6.00;4.45;;;13.60;99.90;;;;;;5061199;28;20588;-79
2023/07/07 06:03:00;;;;;;;7.00;4.75;;;13.70;99.90;;;;;;5060413;28;20202;-79
2023/07/07 06:05:27;;;;;;;6.82;4.60;;;13.80;99.90;;;;;;5078864;28;20177;-80
2023/07/07 06:07:54;;;;;;;9.43;4.90;;;13.90;99.90;;;;;;5060626;28;20201;-80
2023/07/07 06:10:22;;;;;;;9.88;4.90;;;14.00;99.90;;;;;;5060435;28;20204;-80
2023/07/07 06:12:48;;;;;;;9.55;4.28;;;14.10;99.90;;;;;;5077874;28;20288;-79
2023/07/07 06:15:13;;;;;;;7.75;4.40;;;14.20;99.90;;;;;;5078044;28;20174;-79
2023/07/07 06:17:40;;;;;;;7.18;4.43;;;14.30;99.90;;;;;;5078077;28;20176;-80
2023/07/07 06:20:06;;;;;;;7.03;4.60;;;14.50;99.90;;;;;;5077703;28;20261;-79
2023/07/07 06:22:32;;;;;;;9.20;4.68;;;14.60;99.90;;;;;;5059786;28;20185;-80
2023/07/07 06:25:00;;;;;;;11.73;5.07;;;14.70;99.90;;;;;;5077718;28;20178;-80
2023/07/07 06:27:26;;;;;;;7.22;4.13;;;14.80;99.90;;;;;;5060025;28;20181;-80
2023/07/07 06:29:52;;;;;;;9.00;4.40;;;15.00;99.90;;;;;;5060218;28;20189;-80
2023/07/07 06:32:18;;;;;;;9.38;5.38;;;15.10;99.90;;;;;;5077875;28;20194;-80
2023/07/07 06:34:43;;;;;;;9.32;4.80;;;15.30;99.90;;;;;;5076622;28;20185;-80
2023/07/07 06:37:09;;;;;;;10.25;5.38;;;15.30;99.90;;;;;;5077498;28;20170;-80
2023/07/07 06:39:35;;;;;;;6.65;4.68;;;15.40;99.90;;;;;;5058608;28;20260;-80
2023/07/07 06:42:01;;;;;;;7.45;4.05;;;15.50;99.90;;;;;;5076683;28;20174;-80
2023/07/07 06:44:27;;;;;;;8.40;4.80;;;15.60;99.90;;;;;;5058829;28;20198;-80
2023/07/07 06:46:53;;;;;;;6.35;4.13;;;15.60;99.90;;;;;;5076715;28;20170;-80
2023/07/07 06:49:19;;;;;;;9.90;4.57;;;15.70;99.90;;;;;;5058541;28;20264;-80
2023/07/07 06:51:45;;;;;;;6.35;4.18;;;15.80;99.90;;;;;;5076677;28;20170;-80
2023/07/07 06:54:10;;;;;;;6.22;3.80;;;15.90;99.90;;;;;;5058647;28;20210;-80
2023/07/07 06:56:37;;;;;;;8.32;3.85;;;15.90;99.90;;;;;;5058956;28;20268;-80
2023/07/07 06:59:04;;;;;;;6.40;3.97;;;16.00;99.90;;;;;;5076594;28;20170;-79
2023/07/07 07:01:30;;;;;;;6.05;3.92;;;16.20;99.90;;;;;;5058398;28;20198;-80
2023/07/07 07:04:00;;;;;;;7.13;3.83;;;16.30;99.90;;;;;;5058451;28;20228;-80
2023/07/07 07:06:26;;;;;;;6.38;3.65;;;16.50;99.90;;;;;;5058382;28;20186;-80
2023/07/07 07:08:52;;;;;;;6.35;3.80;;;16.60;99.90;;;;;;5058546;28;20204;-80
2023/07/07 07:11:18;;;;;;;4.85;3.50;;;16.80;99.90;;;;;;5076201;28;20174;-80
2023/07/07 07:13:44;;;;;;;15.30;5.75;;;16.80;99.90;;;;;;5075983;28;20233;-79
2023/07/07 07:16:10;;;;;;;9.32;4.22;;;16.90;99.90;;;;;;5057999;28;20177;-80
2023/07/07 07:18:35;;;;;;;4.18;3.28;;;17.00;99.90;;;;;;5075563;28;20185;-79
2023/07/07 07:21:01;;;;;;;8.35;4.30;;;17.10;99.90;;;;;;5075918;28;20189;-80
2023/07/07 07:23:27;;;;;;;7.82;3.40;;;17.10;99.90;;;;;;5075830;28;20202;-80
2023/07/07 07:25:53;;;;;;;6.88;3.90;;;17.20;99.90;;;;;;5057704;28;20660;-80
2023/07/07 07:28:18;;;;;;;29.63;6.80;;;17.30;99.90;;;;;;5058087;28;20729;-80
2023/07/07 07:30:44;;;;;;;10.20;3.95;;;17.40;99.90;;;;;;5075973;28;20173;-80
2023/07/07 07:33:13;;;;;;;5.90;3.20;;;17.50;99.90;;;;;;5075298;28;20255;-79
2023/07/07 07:35:39;;;;;;;5.63;3.42;;;17.70;99.90;;;;;;5057436;28;20188;-80
2023/07/07 07:38:05;;;;;;;5.80;3.22;;;17.90;99.90;;;;;;5076427;28;20520;-80
2023/07/07 07:40:30;;;;;;;4.85;3.47;;;17.90;99.90;;;;;;5058116;28;20177;-80
2023/07/07 07:42:56;;;;;;;5.50;3.42;;;18.00;99.90;;;;;;5076171;28;20251;-79
2023/07/07 07:45:23;;;;;;;23.08;15.40;;;18.20;99.90;;;;;;5057741;28;20174;-79
2023/07/07 07:47:50;;;;;;;15.27;9.43;;;18.30;99.90;;;;;;5076140;28;20211;-79
2023/07/07 07:50:16;;;;;;;27.25;7.30;;;18.50;99.90;;;;;;5075366;28;20563;-80
2023/07/07 07:52:43;;;;;;;11.18;4.60;;;18.60;99.90;;;;;;5057570;28;20264;-81
2023/07/07 07:55:09;;;;;;;9.30;4.13;;;18.80;99.90;;;;;;5075609;28;20560;-81
2023/07/07 07:57:34;;;;;;;5.93;3.35;;;18.90;99.90;;;;;;5057783;28;20174;-79
2023/07/07 08:00:00;;;;;;;6.22;3.38;;;19.00;99.90;;;;;;5075193;28;20185;-76
2023/07/07 08:02:26;;;;;;;6.95;3.33;;;19.20;99.90;;;;;;5057487;28;20182;-79
2023/07/07 08:04:52;;;;;;;5.25;3.25;;;19.30;99.90;;;;;;5075722;28;20201;-80
2023/07/07 08:07:18;;;;;;;9.77;3.40;;;19.40;99.90;;;;;;5076459;28;20201;-79
2023/07/07 08:09:43;;;;;;;7.45;3.42;;;19.50;99.90;;;;;;5076124;28;20547;-79
2023/07/07 08:12:10;;;;;;;8.02;3.40;;;19.60;99.90;;;;;;5075637;28;20190;-79
2023/07/07 08:14:36;;;;;;;9.00;2.90;;;19.70;99.90;;;;;;5058013;28;20217;-80
2023/07/07 08:17:11;;;;;;;7.30;3.47;;;19.80;99.90;;;;;;5057559;28;20185;-79
2023/07/07 08:19:39;;;;;;;3.60;2.83;;;19.90;99.90;;;;;;5075598;28;20219;-78
2023/07/07 08:22:12;;;;;;;4.18;3.05;;;20.00;99.90;;;;;;5075362;28;20154;-79
2023/07/07 08:24:40;;;;;;;9.45;3.47;;;20.20;99.90;;;;;;5060153;28;20194;-80
2023/07/07 08:27:07;;;;;;;5.45;3.17;;;20.30;99.90;;;;;;5083931;28;20199;-80
2023/07/07 08:29:33;;;;;;;6.00;3.03;;;20.40;99.90;;;;;;5065487;28;20578;-81
2023/07/07 08:31:59;;;;;;;7.22;3.40;;;20.60;99.90;;;;;;5059580;28;20181;-84
2023/07/07 08:34:25;;;;;;;6.35;3.28;;;20.70;99.90;;;;;;5058554;28;20239;-83
2023/07/07 08:36:54;;;;;;;6.93;3.15;;;20.90;99.90;;;;;;5058416;28;20190;-85
2023/07/07 08:39:21;;;;;;;5.57;3.08;;;21.00;99.90;;;;;;5058925;28;20233;-84
2023/07/07 08:41:54;;;;;;;5.80;2.63;;;21.20;99.90;;;;;;5058856;28;20204;-82
2023/07/07 08:44:23;;;;;;;4.18;2.60;;;21.40;99.90;;;;;;5058813;28;20196;-83
2023/07/07 08:47:10;;;;;;;3.33;2.58;;;21.60;99.90;;;;;;5057597;28;20170;-85
2023/07/07 08:49:46;;;;;;;6.03;2.78;;;21.80;1.00;;;;;;5057637;28;20176;-85
2023/07/07 08:52:35;;;;;;;4.13;2.50;;;21.90;1.00;;;;;;5058860;28;20189;-85
2023/07/07 08:55:31;;;;;;;5.43;2.78;;;22.10;1.00;;;;;;5060444;28;20650;-85
2023/07/07 08:58:16;;;;;;;4.55;2.30;;;22.30;99.90;;;;;;5068454;28;20180;-85
2023/07/07 09:00:54;;;;;;;4.72;2.38;;;22.40;1.00;;;;;;5068879;28;20599;-85
2023/07/07 09:03:49;;;;;;;5.38;2.35;;;22.50;1.00;;;;;;5061028;28;20288;-85
2023/07/07 09:06:47;;;;;;;3.67;2.13;;;22.70;79.60;;;;;;5061386;28;20213;-85
2023/07/07 09:09:16;;;;;;;4.03;2.75;;;23.00;1.00;;;;;;5058981;28;20173;-85
2023/07/07 09:12:00;;;;;;;4.88;2.80;;;23.20;99.90;;;;;;5075977;28;20166;-85
2023/07/07 09:14:27;;;;;;;3.53;2.50;;;23.50;71.80;;;;;;5057876;28;20247;-85
2023/07/07 09:16:58;;;;;;;4.18;2.65;;;23.70;1.00;;;;;;5057847;28;20173;-84
2023/07/07 09:19:31;;;;;;;2.70;2.17;;;23.80;1.00;;;;;;5057881;28;20166;-85
2023/07/07 09:22:06;;;;;;;2.47;2.15;;;24.00;1.00;;;;;;5057670;28;20176;-84
2023/07/07 09:25:00;;;;;;;3.45;2.35;;;24.30;1.00;;;;;;5057318;28;20200;-85
2023/07/07 09:27:49;;;;;;;6.57;2.42;;;24.60;99.90;;;;;;5058100;28;20598;-84
2023/07/07 09:30:24;;;;;;;4.50;2.83;;;24.60;99.90;;;;;;5058097;28;20514;-84
2023/07/07 09:32:50;;;;;;;5.53;2.45;;;24.80;1.00;;;;;;5057426;28;20193;-85
2023/07/07 09:35:18;;;;;;;7.68;2.58;;;25.00;1.00;;;;;;5057432;28;20528;-85
2023/07/07 09:37:47;;;;;;;2.00;1.77;;;25.20;1.00;;;;;;5057296;28;20184;-85
2023/07/07 09:40:42;;;;;;;4.68;2.55;;;25.30;99.90;;;;;;5057381;28;20209;-85
2023/07/07 09:43:26;;;;;;;2.90;2.10;;;25.40;99.90;;;;;;5057446;28;20201;-85
2023/07/07 09:46:21;;;;;;;5.40;2.72;;;25.50;99.90;;;;;;5057329;28;20540;-84
2023/07/07 09:49:13;;;;;;;4.20;2.50;;;25.40;99.90;;;;;;5057518;28;20311;-84
2023/07/07 09:51:47;;;;;;;3.45;2.42;;;25.50;99.90;;;;;;5057241;28;20249;-85
2023/07/07 09:54:17;;;;;;;5.07;2.55;;;25.60;1.00;;;;;;5057566;28;20206;-84
2023/07/07 09:56:58;;;;;;;13.80;3.35;;;25.60;99.90;;;;;;5056752;28;20581;-85
2023/07/07 09:59:33;;;;;;;4.30;2.30;;;25.80;99.90;;;;;;5057718;28;20219;-85
2023/07/07 10:02:00;;;;;;;4.88;2.40;;;26.00;99.90;;;;;;5060916;28;20165;-84
2023/07/07 10:04:28;;;;;;;4.43;2.55;;;26.00;1.00;;;;;;5060137;28;20308;-85
2023/07/07 10:07:01;;;;;;;3.88;2.75;;;26.00;1.00;;;;;;5041270;28;20232;-84
2023/07/07 10:09:28;;;;;;;3.45;2.53;;;26.00;1.00;;;;;;5040667;28;20709;-84
2023/07/07 10:11:55;;;;;;;5.55;2.35;;;26.00;1.00;;;;;;5040048;28;20175;-84
2023/07/07 10:14:22;;;;;;;2.70;2.20;;;26.10;1.00;;;;;;5058026;28;20190;-85
2023/07/07 10:16:59;;;;;;;5.38;2.30;;;26.20;1.00;;;;;;5039749;28;20178;-85
2023/07/07 10:19:26;;;;;;;3.40;2.40;;;26.30;1.00;;;;;;5039621;28;20261;-85
2023/07/07 10:21:52;;;;;;;2.88;2.30;;;26.20;1.00;;;;;;5039889;28;20224;-85
2023/07/07 10:24:18;;;;;;;4.97;2.50;;;26.30;1.00;;;;;;5040335;28;20675;-84
2023/07/07 10:26:47;;;;;;;3.08;2.20;;;26.30;1.00;;;;;;5039727;28;20201;-84
2023/07/07 10:29:23;;;;;;;4.85;2.28;;;26.40;1.00;;;;;;5040127;28;20177;-85
2023/07/07 10:31:50;;;;;;;3.67;2.50;;;26.30;1.00;;;;;;5039836;28;20169;-84
2023/07/07 10:34:40;;;;;;;3.55;2.33;;;26.50;1.00;;;;;;5039581;28;20232;-85
2023/07/07 10:37:28;;;;;;;4.28;2.40;;;26.40;1.00;;;;;;5041589;28;20170;-84
2023/07/07 10:39:56;;;;;;;5.20;2.58;;;26.30;1.00;;;;;;5039547;28;20674;-84
2023/07/07 10:42:25;;;;;;;2.65;2.45;;;26.30;1.00;;;;;;5039838;28;20202;-84
2023/07/07 10:44:58;;;;;;;2.75;2.13;;;26.30;1.00;;;;;;5039614;28;20203;-84
2023/07/07 10:47:28;;;;;;;3.40;2.55;;;26.30;1.00;;;;;;5039424;28;20175;-84
2023/07/07 10:49:56;;;;;;;4.82;2.35;;;26.20;1.00;;;;;;5040126;28;20535;-85
2023/07/07 10:52:59;;;;;;;3.97;2.50;;;26.30;1.00;;;;;;5039053;28;20285;-85
2023/07/07 10:55:36;;;;;;;3.70;2.28;;;26.60;1.00;;;;;;5039828;28;20174;-84
2023/07/07 10:58:26;;;;;;;2.90;2.20;;;26.60;1.00;;;;;;5039163;28;20170;-84
2023/07/07 11:00:59;;;;;;;4.32;2.50;;;26.60;1.00;;;;;;5039114;28;20177;-84
2023/07/07 11:04:00;;;;;;;2.50;2.20;;;26.60;1.00;;;;;;5039131;28;20674;-84
2023/07/07 11:06:48;;;;;;;3.08;2.35;;;26.60;1.00;;;;;;5032859;28;20213;-84
2023/07/07 11:09:46;;;;;;;4.38;2.22;;;26.50;1.00;;;;;;5039062;28;20179;-84
2023/07/07 11:12:44;;;;;;;2.92;2.03;;;26.40;1.00;;;;;;5038066;28;20206;-84
2023/07/07 11:15:34;;;;;;;2.88;2.20;;;26.50;1.00;;;;;;5039720;28;20670;-84
2023/07/07 11:18:30;;;;;;;2.97;2.30;;;26.70;1.00;;;;;;5041340;28;20167;-84
2023/07/07 11:21:19;;;;;;;6.90;2.42;;;26.60;1.00;;;;;;5038535;28;20670;-84
2023/07/07 11:23:48;;;;;;;4.13;2.30;;;26.80;1.00;;;;;;5039075;28;20228;-84
2023/07/07 11:26:38;;;;;;;4.60;2.40;;;26.90;1.00;;;;;;5038796;28;20273;-84
2023/07/07 11:29:18;;;;;;;3.38;2.40;;;27.00;1.00;;;;;;5039043;28;20244;-84
2023/07/07 11:31:56;;;;;;;3.35;2.35;;;27.20;1.00;;;;;;5038966;28;20174;-84
2023/07/07 11:34:36;;;;;;;3.90;2.63;;;27.20;1.00;;;;;;5038537;28;20210;-84
2023/07/07 11:37:21;;;;;;;5.80;2.30;;;27.20;1.00;;;;;;5069863;28;20237;-84
2023/07/07 11:39:53;;;;;;;2.90;2.08;;;27.20;1.00;;;;;;5018189;28;20277;-83
2023/07/07 11:42:36;;;;;;;3.30;2.40;;;27.20;1.00;;;;;;5059131;28;20224;-83
2023/07/07 11:45:14;;;;;;;4.28;2.17;;;27.30;1.00;;;;;;5057652;28;20181;-82
2023/07/07 11:47:55;;;;;;;3.38;2.38;;;27.40;1.00;;;;;;5058066;28;20220;-83
2023/07/07 11:50:53;;;;;;;3.20;2.20;;;27.20;1.00;;;;;;5076070;28;20166;-83
2023/07/07 11:53:40;;;;;;;4.82;2.42;;;27.20;1.00;;;;;;5058072;28;20284;-83
2023/07/07 11:56:20;;;;;;;4.35;2.50;;;27.40;1.00;;;;;;5057855;28;20180;-83
2023/07/07 11:59:13;;;;;;;3.83;2.35;;;27.50;1.00;;;;;;5058210;28;20166;-83
2023/07/07 12:01:47;;;;;;;4.18;2.15;;;27.70;1.00;;;;;;5058482;28;20180;-84
2023/07/07 12:04:33;;;;;;;2.92;2.30;;;27.90;1.00;;;;;;5061669;28;20194;-85
2023/07/07 12:07:02;;;;;;;4.88;2.33;;;28.00;1.00;;;;;;5061015;28;20186;-84
2023/07/07 12:09:42;;;;;;;5.13;2.13;;;27.80;1.00;;;;;;5059142;28;20260;-84
2023/07/07 12:12:16;;;;;;;2.95;2.60;;;28.10;1.00;;;;;;5059245;28;20703;-85
2023/07/07 12:14:53;;;;;;;4.75;2.20;;;28.20;1.00;;;;;;5062270;28;20200;-85
2023/07/07 12:17:25;;;;;;;2.40;2.13;;;28.30;1.00;;;;;;5065287;28;20215;-84
2023/07/07 12:19:59;;;;;;;7.75;2.17;;;28.50;1.00;;;;;;5063797;28;20189;-84
2023/07/07 12:22:35;;;;;;;3.72;2.22;;;28.30;1.00;;;;;;5060852;28;20173;-85
2023/07/07 12:25:24;;;;;;;4.28;2.08;;;28.40;1.00;;;;;;5077919;28;20199;-84
2023/07/07 12:27:53;;;;;;;3.85;2.38;;;28.60;1.00;;;;;;5059730;28;20186;-85
2023/07/07 12:30:21;;;;;;;3.17;2.20;;;28.60;1.00;;;;;;5059425;28;20200;-84
2023/07/07 12:32:47;;;;;;;6.53;2.70;;;28.80;1.00;;;;;;5058972;28;20572;-84
2023/07/07 12:35:17;;;;;;;4.63;2.33;;;28.90;1.00;;;;;;5057698;28;20174;-84
2023/07/07 12:37:44;;;;;;;3.65;2.40;;;29.00;1.00;;;;;;5057240;28;20185;-84
2023/07/07 12:40:10;;;;;;;4.38;2.40;;;28.90;1.00;;;;;;5057290;28;20182;-84
2023/07/07 12:42:39;;;;;;;3.75;1.90;;;28.90;1.00;;;;;;5057399;28;20186;-85
2023/07/07 12:45:38;;;;;;;3.40;2.33;;;28.80;1.00;;;;;;5057507;28;20181;-84
2023/07/07 12:48:06;;;;;;;3.38;2.35;;;29.00;1.00;;;;;;5014486;28;20185;-84
2023/07/07 12:50:44;;;;;;;4.63;2.40;;;29.00;1.00;;;;;;5057457;28;20189;-85
2023/07/07 12:53:26;;;;;;;2.20;2.00;;;29.10;1.00;;;;;;5057869;28;20282;-85
2023/07/07 12:56:07;;;;;;;2.97;2.25;;;29.50;1.00;;;;;;5058640;28;20541;-84
2023/07/07 12:58:47;;;;;;;2.85;2.13;;;29.60;1.00;;;;;;5063336;28;20170;-82
2023/07/07 13:01:15;;;;;;;4.20;2.22;;;29.70;1.00;;;;;;5064778;28;20566;-83
2023/07/07 13:03:58;;;;;;;3.42;2.35;;;29.70;1.00;;;;;;5063052;28;20197;-81
2023/07/07 13:06:45;;;;;;;4.63;2.00;;;29.50;1.00;;;;;;5063220;28;20186;-81
2023/07/07 13:09:16;;;;;;;2.22;1.70;;;29.70;1.00;;;;;;5060697;28;20220;-84
2023/07/07 13:11:51;;;;;;;4.90;1.92;;;29.70;1.00;;;;;;5058904;28;20269;-83